Time;durP1;ratioP1;P1;durP2;ratioP2;P2;SDS_P1;SDS_P2;PMS_P1;PMS_P2;Temp;Humidity;BMP_temperature;BMP_pressure;BME280_temperature;BME280_humidity;BME280_pressure;Samples;Min_cycle;Max_cycle;Signal;HPM_P1;HPM_P2
2022/06/25 00:01:10;;;;;;;3.22;1.67;;;22.70;91.80;;;;;;5095939;28;20467;-76
2022/06/25 00:03:36;;;;;;;2.13;1.38;;;22.60;91.90;;;;;;5095923;28;20127;-76
2022/06/25 00:06:03;;;;;;;1.75;1.40;;;22.60;92.00;;;;;;5095819;28;20475;-76
2022/06/25 00:08:29;;;;;;;2.85;1.85;;;22.60;92.30;;;;;;5096062;28;20081;-76
2022/06/25 00:10:55;;;;;;;4.38;1.70;;;22.50;92.00;;;;;;5095782;28;20040;-76
2022/06/25 00:13:20;;;;;;;2.22;1.55;;;22.50;92.10;;;;;;5096014;28;20095;-76
2022/06/25 00:15:46;;;;;;;3.75;1.35;;;22.50;92.10;;;;;;5095717;28;20052;-76
2022/06/25 00:18:12;;;;;;;2.08;1.30;;;22.50;92.10;;;;;;5095889;28;20035;-76
2022/06/25 00:20:38;;;;;;;2.72;1.40;;;22.50;92.20;;;;;;5095698;28;20089;-76
2022/06/25 00:23:04;;;;;;;4.97;1.45;;;22.50;92.20;;;;;;5095809;28;20455;-76
2022/06/25 00:25:30;;;;;;;2.88;1.17;;;22.40;92.20;;;;;;5095549;28;20031;-76
2022/06/25 00:27:55;;;;;;;2.70;1.50;;;22.50;92.30;;;;;;5095148;28;20130;-76
2022/06/25 00:30:23;;;;;;;2.28;1.58;;;22.40;92.30;;;;;;5095565;28;20024;-76
2022/06/25 00:32:48;;;;;;;2.65;1.30;;;22.40;92.40;;;;;;5095669;28;20027;-76
2022/06/25 00:35:14;;;;;;;2.20;1.40;;;22.30;92.50;;;;;;5095356;28;20016;-76
2022/06/25 00:37:40;;;;;;;2.42;0.98;;;22.30;92.50;;;;;;5095131;28;20476;-76
2022/06/25 00:40:07;;;;;;;1.00;0.80;;;22.30;92.50;;;;;;5095256;28;20071;-76
2022/06/25 00:42:33;;;;;;;2.17;1.13;;;22.30;92.50;;;;;;5095155;28;20421;-76
2022/06/25 00:44:58;;;;;;;2.78;1.00;;;22.30;92.50;;;;;;5095169;28;20069;-75
2022/06/25 00:47:24;;;;;;;2.38;1.42;;;22.30;92.50;;;;;;5094966;28;20032;-76
2022/06/25 00:49:50;;;;;;;1.73;0.88;;;22.30;92.50;;;;;;5094799;28;20131;-75
2022/06/25 00:52:18;;;;;;;1.95;0.77;;;22.30;92.50;;;;;;5094970;28;20072;-75
2022/06/25 00:54:55;;;;;;;3.10;1.00;;;22.30;92.50;;;;;;5094820;28;20443;-75
2022/06/25 00:57:28;;;;;;;3.08;1.10;;;22.30;92.50;;;;;;5094791;28;20103;-75
2022/06/25 00:59:58;;;;;;;1.25;0.88;;;22.20;92.50;;;;;;5095161;28;20516;-76
2022/06/25 01:02:24;;;;;;;3.45;0.88;;;22.20;92.60;;;;;;5094380;28;20055;-76
2022/06/25 01:04:51;;;;;;;3.00;0.80;;;22.10;92.70;;;;;;5094692;28;20352;-75
2022/06/25 01:07:18;;;;;;;1.60;0.52;;;22.10;92.80;;;;;;5094571;28;20114;-75
2022/06/25 01:09:47;;;;;;;2.20;0.50;;;22.10;92.80;;;;;;5094443;28;20534;-76
2022/06/25 01:12:12;;;;;;;2.55;0.90;;;22.10;92.80;;;;;;5094504;28;20092;-76
2022/06/25 01:14:38;;;;;;;1.20;0.70;;;22.00;92.80;;;;;;5094773;28;20028;-76
2022/06/25 01:17:08;;;;;;;1.52;0.82;;;22.00;92.80;;;;;;5094515;28;20371;-75
2022/06/25 01:19:35;;;;;;;1.52;0.60;;;21.90;92.90;;;;;;5094361;28;20058;-75
2022/06/25 01:22:04;;;;;;;1.52;0.82;;;21.90;93.00;;;;;;5094175;28;20024;-75
2022/06/25 01:24:31;;;;;;;2.17;0.90;;;21.90;93.00;;;;;;5094289;28;20103;-76
2022/06/25 01:26:57;;;;;;;2.30;0.90;;;21.80;93.20;;;;;;5094575;28;20032;-75
2022/06/25 01:29:23;;;;;;;3.03;0.85;;;21.70;93.20;;;;;;5094386;28;20099;-76
2022/06/25 01:31:49;;;;;;;1.65;0.63;;;21.70;93.30;;;;;;5094120;28;20108;-75
2022/06/25 01:34:14;;;;;;;2.35;0.70;;;21.70;93.30;;;;;;5094496;28;20035;-75
2022/06/25 01:36:40;;;;;;;3.88;0.85;;;21.70;93.30;;;;;;5094115;28;20114;-75
2022/06/25 01:39:06;;;;;;;2.22;0.80;;;21.70;93.30;;;;;;5093843;28;20036;-76
2022/06/25 01:41:31;;;;;;;2.30;0.80;;;21.70;93.30;;;;;;5094422;28;20027;-75
2022/06/25 01:43:57;;;;;;;1.20;0.50;;;21.70;93.30;;;;;;5093961;28;20024;-75
2022/06/25 01:46:22;;;;;;;3.85;2.30;;;21.70;93.60;;;;;;5094248;28;20020;-76
2022/06/25 01:48:48;;;;;;;4.65;4.20;;;21.80;93.30;;;;;;5093424;28;20494;-76
2022/06/25 01:51:15;;;;;;;11.73;10.63;;;21.80;93.50;;;;;;5093811;28;20050;-75
2022/06/25 01:53:41;;;;;;;9.85;8.85;;;21.80;93.20;;;;;;5093794;28;20471;-75
2022/06/25 01:56:09;;;;;;;7.50;6.70;;;21.80;93.20;;;;;;5093817;28;20107;-76
2022/06/25 01:58:35;;;;;;;5.75;4.15;;;21.80;93.20;;;;;;5093639;28;20111;-75
2022/06/25 02:01:01;;;;;;;3.00;2.58;;;21.70;93.20;;;;;;5093741;28;20058;-75
2022/06/25 02:03:27;;;;;;;4.00;2.00;;;21.70;93.30;;;;;;5093654;28;20103;-76
2022/06/25 02:05:58;;;;;;;2.35;1.80;;;21.70;93.30;;;;;;5093615;28;20062;-76
2022/06/25 02:08:29;;;;;;;1.33;0.93;;;21.80;93.40;;;;;;5093729;28;20036;-75
2022/06/25 02:10:56;;;;;;;3.10;1.00;;;21.80;93.40;;;;;;5093773;28;20103;-76
2022/06/25 02:13:22;;;;;;;2.20;0.73;;;21.80;93.40;;;;;;5093498;28;20134;-75
2022/06/25 02:15:48;;;;;;;1.92;0.70;;;21.70;93.60;;;;;;5093867;28;20028;-75
2022/06/25 02:18:14;;;;;;;1.67;0.75;;;21.80;93.40;;;;;;5093169;28;20058;-75
2022/06/25 02:20:40;;;;;;;1.27;0.60;;;21.80;93.40;;;;;;5093477;28;20418;-76
2022/06/25 02:23:07;;;;;;;1.38;0.85;;;21.80;93.40;;;;;;5093765;28;20032;-75
2022/06/25 02:25:33;;;;;;;2.50;0.60;;;21.80;93.40;;;;;;5093266;28;20024;-75
2022/06/25 02:27:59;;;;;;;1.80;0.60;;;21.80;93.40;;;;;;5093576;28;20042;-76
2022/06/25 02:30:24;;;;;;;2.17;0.70;;;21.80;93.40;;;;;;5093618;28;20016;-76
2022/06/25 02:32:50;;;;;;;3.33;1.42;;;21.80;93.50;;;;;;5093327;28;20099;-76
2022/06/25 02:35:15;;;;;;;1.70;0.73;;;21.70;93.50;;;;;;5093498;28;20424;-76
2022/06/25 02:37:41;;;;;;;1.20;0.50;;;21.70;93.50;;;;;;5093469;28;20031;-76
2022/06/25 02:40:07;;;;;;;2.42;0.80;;;21.70;93.50;;;;;;5092920;28;20047;-76
2022/06/25 02:42:37;;;;;;;5.00;1.50;;;21.70;93.50;;;;;;5093436;28;20089;-76
2022/06/25 02:45:04;;;;;;;3.25;1.17;;;21.70;93.50;;;;;;5093423;28;20024;-76
2022/06/25 02:47:29;;;;;;;3.33;0.85;;;21.60;93.50;;;;;;5093057;28;20044;-77
2022/06/25 02:49:55;;;;;;;3.53;1.00;;;21.60;93.50;;;;;;5092921;28;20384;-76
2022/06/25 02:52:20;;;;;;;2.10;0.90;;;21.60;93.60;;;;;;5093439;28;20352;-77
2022/06/25 02:54:46;;;;;;;2.20;1.38;;;21.50;93.60;;;;;;5093159;28;20027;-76
2022/06/25 02:59:56;;;;;;;1.13;0.60;;;21.50;93.70;;;;;;5093078;28;20035;-77
2022/06/25 03:02:22;;;;;;;2.33;0.82;;;21.50;93.70;;;;;;5092989;28;20020;-77
2022/06/25 03:04:47;;;;;;;3.05;0.82;;;21.50;93.70;;;;;;5093241;28;20031;-76
2022/06/25 03:07:13;;;;;;;3.05;1.10;;;21.50;93.70;;;;;;5093040;28;20500;-77
2022/06/25 03:09:39;;;;;;;1.52;0.70;;;21.50;93.70;;;;;;5093032;28;20162;-77
2022/06/25 03:12:05;;;;;;;1.90;0.73;;;21.50;93.60;;;;;;5092873;28;20122;-77
2022/06/25 03:14:30;;;;;;;2.97;0.80;;;21.50;93.60;;;;;;5092951;28;20032;-77
2022/06/25 03:16:56;;;;;;;1.98;0.90;;;21.50;93.60;;;;;;5092939;28;20113;-77
2022/06/25 03:19:22;;;;;;;2.45;1.02;;;21.50;93.60;;;;;;5093153;28;20069;-77
2022/06/25 03:21:47;;;;;;;2.85;0.73;;;21.50;93.50;;;;;;5092527;28;20455;-77
2022/06/25 03:24:14;;;;;;;2.05;0.98;;;21.50;93.50;;;;;;5093237;28;20051;-77
2022/06/25 03:26:40;;;;;;;3.30;0.90;;;21.50;93.50;;;;;;5096660;28;20099;-77
2022/06/25 03:29:05;;;;;;;3.30;1.33;;;21.50;93.40;;;;;;5096802;28;20441;-76
2022/06/25 03:31:31;;;;;;;1.65;1.15;;;21.50;93.20;;;;;;5096814;28;20179;-76
2022/06/25 03:33:57;;;;;;;2.63;0.70;;;21.40;93.20;;;;;;5096740;28;20027;-76
2022/06/25 03:36:23;;;;;;;3.92;1.02;;;21.40;93.30;;;;;;5096720;28;20375;-76
2022/06/25 03:38:48;;;;;;;2.10;0.80;;;21.40;93.50;;;;;;5096663;28;20016;-76
2022/06/25 03:41:32;;;;;;;2.88;1.00;;;21.40;93.20;;;;;;5096201;28;20028;-77
2022/06/25 03:44:04;;;;;;;3.28;0.80;;;21.40;93.20;;;;;;5096471;28;20020;-77
2022/06/25 03:46:30;;;;;;;;;;;21.40;93.20;;;;;;5096720;28;20479;-77
2022/06/25 03:48:56;;;;;;;2.33;0.80;;;21.40;93.10;;;;;;5096151;28;19958;-77
2022/06/25 03:51:21;;;;;;;3.72;0.73;;;21.40;93.00;;;;;;5096027;28;20049;-77
2022/06/25 03:53:47;;;;;;;1.63;0.55;;;21.40;93.00;;;;;;5096184;28;20025;-76
2022/06/25 03:56:13;;;;;;;1.67;0.68;;;21.40;93.00;;;;;;5096382;28;20048;-77
2022/06/25 03:58:39;;;;;;;2.80;0.57;;;21.40;93.00;;;;;;5095972;28;20080;-77
2022/06/25 04:01:05;;;;;;;1.95;0.82;;;21.40;93.10;;;;;;5096023;28;20114;-76
2022/06/25 04:03:30;;;;;;;1.02;0.73;;;21.40;93.00;;;;;;5096017;28;20035;-77
2022/06/25 04:05:57;;;;;;;1.45;0.80;;;21.50;93.00;;;;;;5095893;28;20027;-76
2022/06/25 04:08:24;;;;;;;2.17;0.70;;;21.50;92.90;;;;;;5096077;28;20044;-76
2022/06/25 04:10:50;;;;;;;2.83;0.82;;;21.50;92.90;;;;;;5096026;28;20024;-76
2022/06/25 04:13:15;;;;;;;3.33;0.73;;;21.50;92.80;;;;;;5095671;28;20035;-76
2022/06/25 04:15:41;;;;;;;2.20;1.00;;;21.50;93.10;;;;;;5095776;28;20052;-76
2022/06/25 04:18:07;;;;;;;2.92;0.90;;;21.50;92.80;;;;;;5095886;28;20063;-77
2022/06/25 04:20:33;;;;;;;1.70;0.90;;;21.50;92.80;;;;;;5096010;28;20028;-77
2022/06/25 04:22:59;;;;;;;1.17;0.70;;;21.30;92.80;;;;;;5095751;28;20046;-76
2022/06/25 04:25:24;;;;;;;2.60;0.85;;;21.30;93.00;;;;;;5095439;28;20020;-77
2022/06/25 04:30:34;;;;;;;3.65;1.60;;;21.30;93.10;;;;;;5095881;28;20081;-76
2022/06/25 04:33:00;;;;;;;2.03;1.08;;;21.20;92.90;;;;;;5095640;28;20032;-76
2022/06/25 04:35:25;;;;;;;2.35;1.08;;;21.20;93.10;;;;;;5095364;28;20085;-76
2022/06/25 04:37:51;;;;;;;2.97;1.17;;;21.20;93.10;;;;;;5094276;28;20094;-77
2022/06/25 04:40:17;;;;;;;4.75;1.30;;;21.10;93.00;;;;;;5095175;28;20107;-76
2022/06/25 04:42:42;;;;;;;2.28;1.33;;;21.20;93.10;;;;;;5095373;28;20067;-76
2022/06/25 04:45:08;;;;;;;4.65;1.83;;;21.10;93.10;;;;;;5095269;28;20402;-76
2022/06/25 04:47:34;;;;;;;6.03;1.75;;;21.10;93.10;;;;;;5094663;28;20456;-76
2022/06/25 04:49:59;;;;;;;3.15;1.42;;;20.90;93.40;;;;;;5095003;28;20135;-76
2022/06/25 04:52:25;;;;;;;2.90;1.17;;;20.90;93.50;;;;;;5094944;28;20024;-76
2022/06/25 04:54:51;;;;;;;5.57;1.75;;;21.00;93.60;;;;;;5095157;28;20039;-77
2022/06/25 04:57:16;;;;;;;4.55;1.90;;;21.00;94.00;;;;;;5094890;28;20451;-76
2022/06/25 04:59:42;;;;;;;2.25;1.50;;;21.00;93.60;;;;;;5095082;28;20050;-76
2022/06/25 05:02:07;;;;;;;5.90;1.50;;;21.00;93.70;;;;;;5095148;28;20027;-76
2022/06/25 05:04:34;;;;;;;4.60;1.60;;;20.90;93.60;;;;;;5094919;28;20083;-76
2022/06/25 05:07:00;;;;;;;3.17;1.55;;;21.00;93.70;;;;;;5094558;28;20024;-77
2022/06/25 05:09:26;;;;;;;5.13;1.98;;;21.10;93.80;;;;;;5095035;28;20031;-76
2022/06/25 05:11:52;;;;;;;5.50;1.48;;;21.10;94.00;;;;;;5094872;28;20020;-76
2022/06/25 05:14:17;;;;;;;3.85;1.50;;;21.10;94.10;;;;;;5094754;28;20021;-76
2022/06/25 05:16:45;;;;;;;2.10;1.40;;;21.10;94.10;;;;;;5094866;28;20095;-77
2022/06/25 05:19:11;;;;;;;4.28;1.38;;;21.10;94.20;;;;;;5094624;28;20103;-77
2022/06/25 05:21:37;;;;;;;3.40;1.20;;;21.10;94.20;;;;;;5094598;28;20421;-77
2022/06/25 05:24:03;;;;;;;3.10;1.70;;;21.20;94.20;;;;;;5094705;28;20080;-77
2022/06/25 05:26:28;;;;;;;3.33;1.52;;;21.20;94.10;;;;;;5094553;28;20024;-76
2022/06/25 05:28:54;;;;;;;3.03;1.88;;;21.20;94.10;;;;;;5094368;28;20032;-76
2022/06/25 05:31:20;;;;;;;3.70;1.70;;;21.20;94.10;;;;;;5094144;28;20047;-76
2022/06/25 05:33:45;;;;;;;2.60;1.60;;;21.20;94.20;;;;;;5094520;28;20031;-74
2022/06/25 05:36:11;;;;;;;3.75;1.52;;;21.20;94.30;;;;;;5094360;28;20130;-74
2022/06/25 05:38:37;;;;;;;4.35;1.50;;;21.20;94.40;;;;;;5094433;28;20375;-75
2022/06/25 05:41:08;;;;;;;3.85;1.63;;;21.30;94.50;;;;;;5094068;28;20020;-75
2022/06/25 05:43:37;;;;;;;2.97;1.77;;;21.30;94.60;;;;;;5094396;28;20073;-75
2022/06/25 05:46:03;;;;;;;4.65;1.83;;;21.30;94.30;;;;;;5094392;28;20418;-75
2022/06/25 05:48:29;;;;;;;3.80;1.70;;;21.30;94.50;;;;;;5093535;28;20048;-75
2022/06/25 05:50:55;;;;;;;4.72;1.58;;;21.30;94.30;;;;;;5094212;28;20035;-75
2022/06/25 05:53:21;;;;;;;3.92;1.58;;;21.20;94.20;;;;;;5094068;28;20024;-75
2022/06/25 05:55:46;;;;;;;2.35;1.52;;;21.20;94.40;;;;;;5093830;28;20409;-75
2022/06/25 05:58:12;;;;;;;2.67;1.20;;;21.10;94.50;;;;;;5093995;28;20074;-75
2022/06/25 06:00:38;;;;;;;3.25;2.00;;;21.10;94.50;;;;;;5093997;28;20020;-75
2022/06/25 06:03:04;;;;;;;2.72;1.30;;;21.10;94.60;;;;;;5093938;28;20106;-75
2022/06/25 06:05:30;;;;;;;3.30;1.80;;;21.10;94.60;;;;;;5093530;28;20427;-75
2022/06/25 06:07:55;;;;;;;6.45;1.63;;;21.20;94.50;;;;;;5093427;28;20048;-75
2022/06/25 06:10:21;;;;;;;3.30;1.83;;;21.30;94.30;;;;;;5093739;28;20020;-75
2022/06/25 06:12:47;;;;;;;3.85;1.52;;;21.40;94.30;;;;;;5093634;28;20028;-75
2022/06/25 06:15:12;;;;;;;4.00;1.20;;;21.40;94.00;;;;;;5093593;28;20132;-75
2022/06/25 06:17:38;;;;;;;3.92;1.30;;;21.40;94.30;;;;;;5093340;28;20024;-75
2022/06/25 06:20:05;;;;;;;4.75;2.20;;;21.50;94.70;;;;;;5093458;28;20521;-75
2022/06/25 06:22:30;;;;;;;4.25;2.15;;;21.50;94.10;;;;;;5093053;28;20024;-75
2022/06/25 06:24:56;;;;;;;3.10;1.70;;;21.60;93.70;;;;;;5093593;28;20390;-75
2022/06/25 06:27:21;;;;;;;3.90;1.60;;;21.60;93.20;;;;;;5093599;28;20387;-75
2022/06/25 06:29:47;;;;;;;3.67;1.83;;;21.50;93.20;;;;;;5093274;28;20020;-75
2022/06/25 06:32:13;;;;;;;3.38;1.30;;;21.60;93.30;;;;;;5093091;28;20054;-75
2022/06/25 06:34:39;;;;;;;3.75;1.63;;;21.60;93.20;;;;;;5093465;28;20024;-75
2022/06/25 06:37:04;;;;;;;3.35;1.55;;;21.60;93.00;;;;;;5093685;28;20020;-75
2022/06/25 06:39:30;;;;;;;3.83;1.67;;;21.70;92.80;;;;;;5093536;28;20492;-75
2022/06/25 06:41:56;;;;;;;3.03;1.40;;;21.80;92.80;;;;;;5093278;28;20021;-75
2022/06/25 06:44:21;;;;;;;3.83;1.40;;;21.80;93.00;;;;;;5093610;28;20054;-75
2022/06/25 06:46:47;;;;;;;3.35;1.30;;;21.90;93.20;;;;;;5093206;28;20597;-75
2022/06/25 06:49:13;;;;;;;5.28;1.63;;;21.90;92.90;;;;;;5092917;28;20391;-75
2022/06/25 06:51:38;;;;;;;3.25;1.23;;;22.00;92.70;;;;;;5093069;28;20020;-75
2022/06/25 06:54:04;;;;;;;5.25;1.52;;;22.00;92.80;;;;;;5092972;28;20028;-75
2022/06/25 06:56:30;;;;;;;4.55;1.40;;;22.10;92.80;;;;;;5092928;28;20020;-74
2022/06/25 06:58:55;;;;;;;3.92;1.20;;;22.10;92.50;;;;;;5093111;28;20042;-75
2022/06/25 07:01:21;;;;;;;2.58;1.02;;;22.10;92.30;;;;;;5096974;28;20097;-75
2022/06/25 07:03:46;;;;;;;4.13;1.30;;;22.10;92.50;;;;;;5096768;28;20102;-75
2022/06/25 07:06:12;;;;;;;3.60;1.10;;;22.20;92.60;;;;;;5097354;28;20020;-74
2022/06/25 07:08:37;;;;;;;4.90;1.30;;;22.20;92.50;;;;;;5096942;28;20422;-75
2022/06/25 07:11:28;;;;;;;2.35;0.80;;;22.20;92.40;;;;;;5097142;28;20020;-75
2022/06/25 07:13:49;;;;;;;3.35;1.10;;;22.30;92.40;;;;;;5096848;28;20055;-75
2022/06/25 07:16:14;;;;;;;1.83;0.93;;;22.30;92.40;;;;;;5096831;28;20044;-75
2022/06/25 07:18:40;;;;;;;2.42;0.80;;;22.30;91.90;;;;;;5097147;28;20403;-75
2022/06/25 07:21:05;;;;;;;4.78;1.05;;;22.40;91.80;;;;;;5096733;28;20024;-75
2022/06/25 07:23:31;;;;;;;3.05;0.88;;;22.40;91.60;;;;;;5096492;28;20115;-75
2022/06/25 07:25:56;;;;;;;4.45;1.00;;;22.50;91.70;;;;;;5096856;28;20031;-75
2022/06/25 07:28:22;;;;;;;2.65;1.05;;;22.50;91.60;;;;;;5096841;28;20420;-75
2022/06/25 07:30:47;;;;;;;6.18;1.02;;;22.50;91.90;;;;;;5096717;28;20020;-75
2022/06/25 07:33:13;;;;;;;2.38;0.93;;;22.60;91.80;;;;;;5096805;28;20028;-75
2022/06/25 07:35:39;;;;;;;3.50;0.80;;;22.60;91.90;;;;;;5096135;28;20016;-75
2022/06/25 07:38:04;;;;;;;2.13;0.90;;;22.70;91.70;;;;;;5096643;28;20058;-75
2022/06/25 07:40:30;;;;;;;1.85;0.60;;;22.80;91.70;;;;;;5096502;28;20501;-75
2022/06/25 07:42:56;;;;;;;4.18;0.90;;;22.90;91.60;;;;;;5096613;28;20360;-75
2022/06/25 07:45:21;;;;;;;2.63;0.90;;;23.00;91.20;;;;;;5096300;28;20027;-75
2022/06/25 07:47:47;;;;;;;2.15;0.77;;;23.10;91.40;;;;;;5096376;28;20520;-75
2022/06/25 07:52:57;;;;;;;4.10;0.52;;;23.10;91.60;;;;;;5096281;28;20077;-75
2022/06/25 07:55:23;;;;;;;2.58;0.80;;;23.20;91.50;;;;;;5096087;28;20024;-75
2022/06/25 07:57:48;;;;;;;5.30;0.90;;;23.30;92.20;;;;;;5095916;28;20028;-75
2022/06/25 08:00:14;;;;;;;2.10;0.50;;;23.40;92.10;;;;;;5095963;28;20481;-75
2022/06/25 08:02:40;;;;;;;2.90;0.57;;;23.50;91.60;;;;;;5096174;28;20081;-75
2022/06/25 08:05:06;;;;;;;3.20;0.70;;;23.60;90.60;;;;;;5096171;28;20020;-76
2022/06/25 08:07:31;;;;;;;1.85;0.43;;;23.70;90.80;;;;;;5095699;28;20031;-75
2022/06/25 08:09:57;;;;;;;3.40;0.40;;;23.80;90.50;;;;;;5095645;28;20036;-75
2022/06/25 08:12:22;;;;;;;2.78;0.50;;;23.70;90.00;;;;;;5095437;28;20313;-75
2022/06/25 08:14:48;;;;;;;4.65;0.45;;;23.70;89.60;;;;;;5096038;28;20032;-75
2022/06/25 08:17:14;;;;;;;2.92;0.45;;;23.70;89.80;;;;;;5095827;28;20049;-75
2022/06/25 08:19:39;;;;;;;1.67;0.30;;;23.70;88.90;;;;;;5095602;28;20039;-75
2022/06/25 08:22:05;;;;;;;2.33;0.50;;;23.70;89.40;;;;;;5095552;28;20032;-75
2022/06/25 08:24:30;;;;;;;2.33;0.40;;;23.60;90.10;;;;;;5095553;28;20039;-75
2022/06/25 08:26:56;;;;;;;0.73;0.20;;;23.60;90.00;;;;;;5095431;28;20020;-75
2022/06/25 08:29:22;;;;;;;1.50;0.10;;;23.70;89.60;;;;;;5095370;28;20433;-76
2022/06/25 08:31:47;;;;;;;0.88;0.30;;;23.80;88.10;;;;;;5095641;28;20016;-75
2022/06/25 08:34:13;;;;;;;1.05;0.13;;;23.80;87.50;;;;;;5095547;28;20466;-75
2022/06/25 08:36:38;;;;;;;1.20;0.20;;;23.90;87.20;;;;;;5095168;28;20439;-75
2022/06/25 08:39:04;;;;;;;0.50;0.20;;;24.00;86.60;;;;;;5095608;28;20073;-75
2022/06/25 08:41:30;;;;;;;0.77;0.20;;;24.10;87.10;;;;;;5095442;28;20050;-75
2022/06/25 08:43:55;;;;;;;2.28;0.45;;;24.20;86.90;;;;;;5095314;28;20020;-75
2022/06/25 08:46:21;;;;;;;3.20;0.30;;;24.20;86.20;;;;;;5095501;28;20074;-75
2022/06/25 08:48:50;;;;;;;1.63;0.30;;;24.30;85.40;;;;;;5094806;28;20044;-75
2022/06/25 08:51:18;;;;;;;2.70;0.40;;;24.30;85.60;;;;;;5095184;28;20058;-75
2022/06/25 08:53:45;;;;;;;2.33;0.35;;;24.20;87.30;;;;;;5094929;28;20031;-75
2022/06/25 08:56:10;;;;;;;1.20;0.20;;;24.20;88.00;;;;;;5095119;28;20024;-75
2022/06/25 08:58:37;;;;;;;1.30;0.22;;;24.20;87.00;;;;;;5095046;28;20376;-75
2022/06/25 09:01:03;;;;;;;0.88;0.20;;;24.20;86.50;;;;;;5094806;28;20111;-75
2022/06/25 09:03:28;;;;;;;1.48;0.30;;;24.10;85.50;;;;;;5094914;28;20166;-75
2022/06/25 09:05:54;;;;;;;0.70;0.20;;;24.10;85.80;;;;;;5094531;28;20097;-76
2022/06/25 09:08:20;;;;;;;1.67;0.40;;;24.00;85.70;;;;;;5094730;28;20036;-76
2022/06/25 09:10:54;;;;;;;1.88;0.30;;;23.90;85.90;;;;;;5094831;28;20035;-75
2022/06/25 09:13:24;;;;;;;2.08;0.30;;;24.00;87.00;;;;;;5094263;28;20020;-76
2022/06/25 09:15:50;;;;;;;1.13;0.20;;;24.10;87.40;;;;;;5094857;28;20127;-76
2022/06/25 09:18:18;;;;;;;1.38;0.30;;;24.10;87.30;;;;;;5094784;28;20439;-75
2022/06/25 09:21:05;;;;;;;1.38;0.30;;;24.00;86.30;;;;;;5094503;28;20020;-75
2022/06/25 09:23:33;;;;;;;1.35;0.20;;;23.90;86.20;;;;;;5094185;28;20386;-75
2022/06/25 09:26:00;;;;;;;0.75;0.30;;;23.80;86.40;;;;;;5094520;28;20371;-76
2022/06/25 09:28:40;;;;;;;1.48;0.30;;;23.70;87.00;;;;;;5093791;28;20039;-75
2022/06/25 09:31:07;;;;;;;1.83;0.30;;;23.60;87.10;;;;;;5094437;28;20050;-75
2022/06/25 09:33:34;;;;;;;0.50;0.20;;;23.60;87.50;;;;;;5094192;28;20050;-75
2022/06/25 09:35:59;;;;;;;2.53;0.32;;;23.50;87.70;;;;;;5094013;28;20364;-75
2022/06/25 09:38:26;;;;;;;1.60;0.38;;;23.40;88.10;;;;;;5094094;28;20085;-76
2022/06/25 09:40:59;;;;;;;1.77;0.22;;;23.40;88.10;;;;;;5094143;28;20108;-75
2022/06/25 09:43:27;;;;;;;1.23;0.40;;;23.40;88.20;;;;;;5093930;28;20039;-75
2022/06/25 09:45:55;;;;;;;3.72;0.60;;;23.40;89.00;;;;;;5093959;28;20085;-76
2022/06/25 09:48:26;;;;;;;1.85;0.60;;;23.40;89.00;;;;;;5094012;28;20182;-76
2022/06/25 09:51:14;;;;;;;1.75;0.90;;;23.30;89.10;;;;;;5093949;28;20064;-76
2022/06/25 09:53:53;;;;;;;0.98;0.30;;;23.30;89.00;;;;;;5093854;28;20023;-76
2022/06/25 09:56:23;;;;;;;1.55;0.28;;;23.20;89.10;;;;;;5093907;28;20028;-77
2022/06/25 09:58:50;;;;;;;1.55;0.28;;;23.20;89.00;;;;;;5094009;28;20035;-76
2022/06/25 10:01:18;;;;;;;3.17;0.40;;;23.20;89.90;;;;;;5094035;28;20028;-76
2022/06/25 10:03:45;;;;;;;1.50;0.30;;;23.20;90.10;;;;;;5093982;28;20091;-76
2022/06/25 10:06:16;;;;;;;1.00;0.20;;;23.20;90.00;;;;;;5093580;28;20119;-76
2022/06/25 10:08:54;;;;;;;3.05;0.28;;;23.20;90.00;;;;;;5093805;28;20070;-76
2022/06/25 10:11:25;;;;;;;4.30;0.30;;;23.20;90.00;;;;;;5093645;28;20035;-76
2022/06/25 10:13:51;;;;;;;3.05;0.52;;;23.20;90.20;;;;;;5093709;28;20069;-77
2022/06/25 10:16:18;;;;;;;1.42;0.45;;;23.20;90.00;;;;;;5093627;28;20069;-76
2022/06/25 10:18:45;;;;;;;2.42;0.40;;;23.20;89.70;;;;;;5093644;28;20020;-76
2022/06/25 10:21:12;;;;;;;3.17;0.38;;;23.20;89.90;;;;;;5093405;28;20028;-76
2022/06/25 10:23:38;;;;;;;1.30;0.40;;;23.30;90.00;;;;;;5093426;28;20024;-75
2022/06/25 10:26:05;;;;;;;2.28;0.35;;;23.30;90.30;;;;;;5093318;28;20024;-75
2022/06/25 10:28:34;;;;;;;2.58;0.50;;;23.30;90.70;;;;;;5093265;28;20032;-75
2022/06/25 10:31:05;;;;;;;1.90;0.50;;;23.30;90.20;;;;;;5093602;28;20119;-75
2022/06/25 10:33:36;;;;;;;0.95;0.40;;;23.30;89.70;;;;;;5093475;28;20028;-75
2022/06/25 10:36:04;;;;;;;1.13;0.40;;;23.30;90.00;;;;;;5092723;28;20103;-75
2022/06/25 10:38:30;;;;;;;3.00;0.30;;;23.40;89.50;;;;;;5093222;28;20032;-75
2022/06/25 10:42:58;;;;;;;2.95;0.30;;;23.40;88.60;;;;;;5093321;28;20039;-75
2022/06/25 10:43:50;;;;;;;1.65;0.35;;;23.30;88.20;;;;;;5093117;28;20421;-75
2022/06/25 10:46:19;;;;;;;1.95;0.20;;;23.30;88.50;;;;;;5093183;28;20387;-75
2022/06/25 10:49:07;;;;;;;3.17;0.40;;;23.30;89.00;;;;;;5092703;28;20525;-75
2022/06/25 10:51:47;;;;;;;4.22;0.40;;;23.30;89.80;;;;;;5093383;28;20081;-75
2022/06/25 10:54:24;;;;;;;2.13;0.20;;;23.30;90.00;;;;;;5092938;28;20046;-75
2022/06/25 10:56:53;;;;;;;2.53;0.35;;;23.30;90.10;;;;;;5092984;28;20032;-75
2022/06/25 10:59:45;;;;;;;1.38;0.70;;;23.20;90.20;;;;;;5093055;28;20020;-75
2022/06/25 11:02:12;;;;;;;1.42;0.40;;;23.20;90.40;;;;;;5092492;28;20057;-76
2022/06/25 11:04:38;;;;;;;1.77;0.47;;;23.20;90.60;;;;;;5092739;28;20501;-75
2022/06/25 11:07:10;;;;;;;3.22;0.38;;;23.30;90.90;;;;;;5092822;28;20111;-75
2022/06/25 11:09:37;;;;;;;;;;;23.20;91.10;;;;;;5093536;28;20028;-75
2022/06/25 11:12:04;;;;;;;2.65;0.68;;;23.20;90.90;;;;;;5092772;28;19904;-75
2022/06/25 11:14:30;;;;;;;1.25;0.40;;;23.20;90.50;;;;;;5092808;28;20047;-76
2022/06/25 11:16:55;;;;;;;1.90;0.50;;;23.20;90.90;;;;;;5092866;28;20505;-75
2022/06/25 11:19:23;;;;;;;2.20;0.75;;;23.20;90.50;;;;;;5092862;28;20031;-75
2022/06/25 11:21:49;;;;;;;2.72;0.40;;;23.10;90.60;;;;;;5092748;28;20048;-75
2022/06/25 11:24:21;;;;;;;2.15;0.35;;;23.10;90.50;;;;;;5092616;28;20625;-75
2022/06/25 11:29:37;;;;;;;2.75;0.60;;;23.10;90.30;;;;;;5092717;28;20051;-75
2022/06/25 11:32:04;;;;;;;2.30;0.50;;;23.10;90.70;;;;;;5092569;28;20024;-75
2022/06/25 11:34:30;;;;;;;1.08;0.30;;;23.10;90.80;;;;;;5092702;28;20046;-75
2022/06/25 11:37:09;;;;;;;2.55;0.50;;;23.20;90.70;;;;;;5092527;28;20467;-76
2022/06/25 11:39:36;;;;;;;1.80;0.40;;;23.20;90.60;;;;;;5092912;28;20028;-76
2022/06/25 11:42:05;;;;;;;2.80;1.00;;;23.40;91.20;;;;;;5092368;28;20020;-75
2022/06/25 11:44:39;;;;;;;4.85;0.82;;;23.50;90.40;;;;;;5092437;28;20498;-76
2022/06/25 11:47:05;;;;;;;4.25;0.32;;;23.60;89.60;;;;;;5095394;28;20119;-75
2022/06/25 11:49:38;;;;;;;3.17;0.60;;;23.70;89.90;;;;;;5095968;28;20131;-75
2022/06/25 11:52:05;;;;;;;2.70;0.30;;;23.90;90.30;;;;;;5095948;28;20425;-75
2022/06/25 11:54:32;;;;;;;2.30;0.93;;;24.10;89.30;;;;;;5096313;28;20050;-75
2022/06/25 11:56:58;;;;;;;2.83;0.30;;;24.40;87.50;;;;;;5096362;28;20058;-75
2022/06/25 11:59:29;;;;;;;1.85;0.40;;;24.50;87.90;;;;;;5096135;28;20058;-76
2022/06/25 12:01:55;;;;;;;2.30;0.40;;;24.60;88.10;;;;;;5095966;28;20111;-75
2022/06/25 12:04:21;;;;;;;3.92;0.47;;;24.70;86.90;;;;;;5095989;28;20080;-75
2022/06/25 12:06:48;;;;;;;3.25;0.52;;;24.70;88.10;;;;;;5096136;28;20022;-75
2022/06/25 12:09:19;;;;;;;2.70;0.40;;;24.60;86.70;;;;;;5095756;28;20036;-75
2022/06/25 12:11:52;;;;;;;4.07;0.60;;;24.60;86.80;;;;;;5095982;28;20021;-75
2022/06/25 12:14:25;;;;;;;3.35;0.60;;;24.50;85.80;;;;;;5095797;28;20394;-75
2022/06/25 12:16:52;;;;;;;2.70;0.55;;;24.40;86.10;;;;;;5095930;28;20031;-75
2022/06/25 12:19:19;;;;;;;1.25;0.45;;;24.40;86.40;;;;;;5095579;28;20056;-75
2022/06/25 12:21:45;;;;;;;2.88;0.32;;;24.40;87.30;;;;;;5095684;28;20069;-76
2022/06/25 12:24:13;;;;;;;2.65;0.40;;;24.40;86.50;;;;;;5095348;28;20247;-76
2022/06/25 12:26:41;;;;;;;2.10;0.50;;;24.40;86.20;;;;;;5095273;28;20059;-75
2022/06/25 12:29:14;;;;;;;4.28;0.50;;;24.50;86.10;;;;;;5095301;28;20494;-76
2022/06/25 12:31:42;;;;;;;3.72;0.50;;;24.60;87.50;;;;;;5095374;28;20371;-76
2022/06/25 12:34:08;;;;;;;2.63;0.40;;;24.60;86.70;;;;;;5095253;28;20490;-75
2022/06/25 12:36:36;;;;;;;1.52;0.40;;;24.60;86.70;;;;;;5095111;28;20016;-75
2022/06/25 12:39:23;;;;;;;2.35;0.40;;;24.50;86.00;;;;;;5094851;28;20111;-76
2022/06/25 12:41:49;;;;;;;4.03;0.50;;;24.50;86.40;;;;;;5095082;28;20032;-76
2022/06/25 12:44:15;;;;;;;1.10;0.38;;;24.50;86.80;;;;;;5095353;28;20017;-77
2022/06/25 12:46:41;;;;;;;1.52;0.32;;;24.50;86.20;;;;;;5095325;28;20107;-77
2022/06/25 12:49:10;;;;;;;1.73;0.40;;;24.50;85.90;;;;;;5094822;28;20562;-75
2022/06/25 12:51:35;;;;;;;2.63;0.50;;;24.60;85.90;;;;;;5095090;28;20043;-74
2022/06/25 12:54:01;;;;;;;4.55;0.93;;;24.60;85.70;;;;;;5095016;28;20024;-77
2022/06/25 12:56:27;;;;;;;2.95;0.82;;;24.70;85.70;;;;;;5094970;28;20024;-77
2022/06/25 12:58:56;;;;;;;2.30;0.30;;;24.80;85.30;;;;;;5094294;28;20047;-76